KCIC/CIC METAR and TAF weather

Enter ICAO airport designator
Station Type Date Time Source
KCIC METAR 2021/09/28 15:49 UTC NOAA

KCIC 281549Z 30013KT 80SM SCT150 15/04 A3010


Station Type Date Time Source
KCIC Decoded METAR 2021/09/28 15:49 UTC NOAA

Chico Municipal , CA, United States (KCIC) 39-48N 121-51W
Sep 28, 2021 - 11:49 AM EDT / 2021.09.28 1549 UTC
Wind: from the WNW (300 degrees) at 15 MPH (13 KT):0
Visibility: 80 mile(s):0
Sky conditions: partly cloudy
Temperature: 59 F (15 C)
Dew Point: 39 F (4 C)
Relative Humidity: 47%
Pressure (altimeter): 30.1 in. Hg (1019 hPa)
ob: KCIC 281549Z 30013KT 80SM SCT150 15/04 A3010
cycle: 16

Station Type Date Time Source
KCIC TAF UTC NOAA

Error!

Example: see airport list